createdAt,value
2018-07-03T00:01:48.627Z,16.80
2018-07-03T00:04:16.785Z,16.70
2018-07-03T00:06:44.926Z,16.70
2018-07-03T00:09:13.227Z,16.60
2018-07-03T00:11:41.362Z,16.60
2018-07-03T00:14:09.486Z,16.50
2018-07-03T00:16:43.006Z,16.50
2018-07-03T00:19:11.171Z,16.40
2018-07-03T00:21:39.325Z,16.40
2018-07-03T00:24:07.465Z,16.30
2018-07-03T00:26:35.608Z,16.30
2018-07-03T00:29:03.773Z,16.30
2018-07-03T00:31:31.895Z,16.20
2018-07-03T00:34:00.071Z,16.20
2018-07-03T00:36:28.202Z,16.20
2018-07-03T00:38:56.371Z,16.20
2018-07-03T00:41:24.529Z,16.10
2018-07-03T00:43:52.915Z,16.10
2018-07-03T00:46:21.093Z,16.00
2018-07-03T00:48:49.254Z,15.90
2018-07-03T00:51:17.379Z,15.90
2018-07-03T00:53:45.627Z,15.80
2018-07-03T00:56:13.825Z,15.70
2018-07-03T00:58:41.956Z,15.70
2018-07-03T01:01:10.165Z,15.70
2018-07-03T01:03:38.303Z,15.60
2018-07-03T01:06:06.474Z,15.60
2018-07-03T01:08:34.607Z,15.60
2018-07-03T01:11:02.759Z,15.60
2018-07-03T01:13:30.890Z,15.50
2018-07-03T01:15:59.033Z,15.50
2018-07-03T01:18:27.163Z,15.50
2018-07-03T01:20:55.301Z,15.50
2018-07-03T01:23:23.462Z,15.50
2018-07-03T01:25:51.584Z,15.40
2018-07-03T01:28:19.742Z,15.40
2018-07-03T01:30:48.237Z,15.30
2018-07-03T01:33:16.384Z,15.20
2018-07-03T01:35:44.501Z,15.20
2018-07-03T01:38:12.666Z,15.20
2018-07-03T01:40:40.817Z,15.10
2018-07-03T01:43:08.957Z,15.10
2018-07-03T01:45:37.092Z,15.10
2018-07-03T01:48:05.392Z,15.00
2018-07-03T01:50:33.588Z,15.00
2018-07-03T01:53:01.709Z,15.00
2018-07-03T01:55:29.846Z,15.00
2018-07-03T01:57:58.042Z,15.00
2018-07-03T02:00:26.275Z,15.00
2018-07-03T02:02:54.416Z,14.90
2018-07-03T02:05:22.692Z,14.90
2018-07-03T02:07:52.186Z,14.90
2018-07-03T02:10:20.333Z,14.90
2018-07-03T02:12:48.445Z,14.90
2018-07-03T02:15:16.599Z,14.80
2018-07-03T02:17:44.733Z,14.80
2018-07-03T02:20:13.062Z,14.70
2018-07-03T02:22:41.315Z,14.70
2018-07-03T02:25:09.462Z,14.70
2018-07-03T02:27:37.594Z,14.60
2018-07-03T02:32:33.747Z,14.60
2018-07-03T02:35:01.898Z,14.50
2018-07-03T02:37:30.085Z,14.50
2018-07-03T02:39:58.234Z,14.50
2018-07-03T02:42:26.348Z,14.40
2018-07-03T02:44:54.507Z,14.40
2018-07-03T02:47:22.690Z,14.30
2018-07-03T02:49:50.894Z,14.30
2018-07-03T02:52:19.081Z,14.30
2018-07-03T02:54:47.279Z,14.30
2018-07-03T02:57:15.402Z,14.20
2018-07-03T02:59:44.581Z,14.20
2018-07-03T03:02:12.743Z,14.20
2018-07-03T03:04:40.879Z,14.10
2018-07-03T03:07:09.003Z,14.10
2018-07-03T03:09:37.163Z,14.10
2018-07-03T03:12:05.390Z,14.10
2018-07-03T03:14:33.550Z,14.10
2018-07-03T03:17:01.717Z,14.00
2018-07-03T03:19:29.871Z,14.00
2018-07-03T03:21:58.027Z,14.00
2018-07-03T03:24:26.167Z,14.00
2018-07-03T03:26:54.280Z,14.00
2018-07-03T03:29:22.390Z,14.00
2018-07-03T03:31:50.573Z,14.10
2018-07-03T03:34:18.695Z,14.10
2018-07-03T03:36:46.837Z,14.20
2018-07-03T03:39:14.989Z,14.30
2018-07-03T03:41:43.101Z,14.30
2018-07-03T03:44:11.248Z,14.30
2018-07-03T03:46:39.397Z,14.40
2018-07-03T03:49:07.558Z,14.40
2018-07-03T03:51:35.718Z,14.40
2018-07-03T03:54:03.835Z,14.50
2018-07-03T03:56:31.990Z,14.50
2018-07-03T03:59:01.174Z,14.50
2018-07-03T04:01:29.346Z,14.50
2018-07-03T04:03:57.485Z,14.50
2018-07-03T04:06:25.638Z,14.50
2018-07-03T04:08:53.802Z,14.50
2018-07-03T04:11:21.955Z,14.60
2018-07-03T04:13:50.113Z,14.60
2018-07-03T04:16:18.278Z,14.70
2018-07-03T04:18:46.466Z,14.70
2018-07-03T04:23:42.595Z,14.80
2018-07-03T04:26:10.783Z,14.90
2018-07-03T04:28:38.930Z,15.00
2018-07-03T04:31:07.104Z,15.00
2018-07-03T04:33:35.252Z,15.10
2018-07-03T04:36:03.402Z,15.10
2018-07-03T04:38:31.535Z,15.10
2018-07-03T04:40:59.666Z,15.20
2018-07-03T04:43:27.790Z,15.30
2018-07-03T04:45:55.913Z,15.40
2018-07-03T04:48:24.070Z,15.50
2018-07-03T04:50:52.201Z,15.50
2018-07-03T04:53:20.428Z,15.60
2018-07-03T04:55:48.537Z,15.70
2018-07-03T04:58:16.725Z,15.80
2018-07-03T05:00:45.008Z,15.90
2018-07-03T05:03:13.231Z,15.90
2018-07-03T05:05:41.358Z,16.10
2018-07-03T05:08:09.539Z,16.20
2018-07-03T05:10:37.778Z,16.40
2018-07-03T05:13:25.847Z,16.50
2018-07-03T05:15:54.027Z,16.60
2018-07-03T05:18:22.494Z,16.80
2018-07-03T05:20:50.629Z,17.00
2018-07-03T05:23:18.794Z,17.10
2018-07-03T05:25:47.101Z,17.30
2018-07-03T05:28:15.792Z,17.40
2018-07-03T05:30:43.975Z,17.50
2018-07-03T05:33:12.102Z,17.60
2018-07-03T05:35:40.257Z,17.70
2018-07-03T05:38:08.399Z,17.80
2018-07-03T05:40:36.556Z,18.00
2018-07-03T05:43:18.068Z,18.10
2018-07-03T05:45:46.234Z,18.20
2018-07-03T05:48:18.812Z,18.40
2018-07-03T05:50:47.025Z,18.40
2018-07-03T05:53:15.272Z,18.40
2018-07-03T05:55:43.403Z,18.40
2018-07-03T05:58:11.571Z,18.30
2018-07-03T06:03:07.691Z,18.40
2018-07-03T06:05:35.872Z,18.40
2018-07-03T06:08:04.014Z,18.50
2018-07-03T06:10:32.188Z,18.70
2018-07-03T06:13:00.380Z,18.90
2018-07-03T06:15:28.539Z,19.30
2018-07-03T06:17:56.691Z,19.50
2018-07-03T06:20:25.007Z,19.80
2018-07-03T06:22:53.248Z,20.00
2018-07-03T06:25:21.391Z,20.20
2018-07-03T06:27:49.579Z,20.30
2018-07-03T06:30:17.771Z,20.50
2018-07-03T06:32:45.988Z,20.50
2018-07-03T06:35:14.224Z,20.60
2018-07-03T06:37:42.442Z,20.60
2018-07-03T06:40:10.539Z,20.70
2018-07-03T06:45:07.014Z,20.80
2018-07-03T06:47:35.324Z,20.80
2018-07-03T06:50:03.638Z,20.80
2018-07-03T06:52:31.786Z,20.90
2018-07-03T06:54:59.938Z,21.10
2018-07-03T06:57:44.214Z,21.50
2018-07-03T07:00:12.395Z,22.00
2018-07-03T07:02:40.572Z,22.60
2018-07-03T07:05:08.711Z,23.20
2018-07-03T07:07:48.160Z,23.60
2018-07-03T07:10:16.340Z,23.90
2018-07-03T07:12:44.607Z,24.30
2018-07-03T07:15:12.804Z,24.80
2018-07-03T07:17:40.966Z,25.10
2018-07-03T07:20:09.117Z,25.40
2018-07-03T07:22:37.317Z,25.80
2018-07-03T07:25:05.662Z,26.10
2018-07-03T07:27:34.257Z,26.20
2018-07-03T07:30:02.446Z,26.40
2018-07-03T07:32:30.750Z,26.50
2018-07-03T07:34:58.920Z,26.60
2018-07-03T07:37:27.103Z,26.80
2018-07-03T07:39:55.300Z,27.00
2018-07-03T07:42:23.643Z,27.20
2018-07-03T07:44:51.837Z,27.40
2018-07-03T07:47:20.140Z,27.70
2018-07-03T07:49:48.456Z,28.00
2018-07-03T07:52:16.631Z,28.30
2018-07-03T07:54:44.815Z,28.50
2018-07-03T07:57:13.006Z,28.60
2018-07-03T07:59:41.257Z,28.80
2018-07-03T08:02:09.447Z,28.80
2018-07-03T08:04:37.670Z,28.80
2018-07-03T08:07:05.974Z,28.90
2018-07-03T08:09:34.181Z,28.90
2018-07-03T08:12:02.430Z,28.90
2018-07-03T08:14:30.603Z,29.20
2018-07-03T08:16:58.913Z,29.50
2018-07-03T08:19:27.116Z,29.70
2018-07-03T08:21:55.502Z,30.00
2018-07-03T08:24:23.819Z,30.30
2018-07-03T08:26:51.985Z,30.30
2018-07-03T08:29:20.150Z,30.30
2018-07-03T08:31:48.450Z,30.40
2018-07-03T08:34:17.766Z,30.60
2018-07-03T08:36:45.981Z,30.90
2018-07-03T08:39:14.237Z,30.80
2018-07-03T08:41:42.684Z,31.00
2018-07-03T08:44:10.843Z,31.10
2018-07-03T08:46:38.983Z,31.40
2018-07-03T08:49:08.138Z,31.40
2018-07-03T08:51:36.951Z,31.10
2018-07-03T08:54:05.292Z,31.10
2018-07-03T08:56:33.996Z,31.20
2018-07-03T08:59:02.843Z,31.50
2018-07-03T09:01:31.171Z,31.70
2018-07-03T09:03:59.387Z,31.70
2018-07-03T09:06:27.955Z,31.50
2018-07-03T09:08:56.236Z,31.20
2018-07-03T09:11:24.563Z,31.10
2018-07-03T09:13:52.961Z,31.00
2018-07-03T09:16:21.121Z,31.00
2018-07-03T09:18:49.411Z,31.00
2018-07-03T09:21:17.664Z,31.00
2018-07-03T09:23:45.920Z,30.80
2018-07-03T09:26:14.097Z,30.70
2018-07-03T09:28:42.251Z,30.60
2018-07-03T09:31:10.442Z,30.60
2018-07-03T09:33:38.615Z,30.70
2018-07-03T09:36:06.882Z,30.80
2018-07-03T09:38:35.222Z,30.60
2018-07-03T09:41:03.523Z,30.40
2018-07-03T09:43:31.690Z,30.30
2018-07-03T09:45:59.912Z,30.10
2018-07-03T09:48:28.067Z,30.00
2018-07-03T09:50:56.182Z,30.00
2018-07-03T09:53:24.310Z,29.90
2018-07-03T09:55:52.459Z,29.80
2018-07-03T09:58:20.621Z,29.80
2018-07-03T10:00:54.652Z,30.20
2018-07-03T10:03:23.331Z,30.60
2018-07-03T10:05:51.529Z,30.80
2018-07-03T10:08:19.682Z,31.00
2018-07-03T10:10:47.811Z,31.20
2018-07-03T10:13:15.946Z,31.30
2018-07-03T10:15:44.127Z,31.10
2018-07-03T10:18:12.289Z,31.00
2018-07-03T10:20:40.429Z,31.10
2018-07-03T10:23:08.602Z,31.00
2018-07-03T10:25:36.795Z,30.90
2018-07-03T10:28:04.927Z,30.70
2018-07-03T10:30:33.096Z,30.50
2018-07-03T10:33:01.237Z,30.70
2018-07-03T10:35:29.453Z,30.80
2018-07-03T10:37:57.602Z,30.70
2018-07-03T10:40:25.792Z,30.90
2018-07-03T10:42:53.918Z,30.60
2018-07-03T10:45:22.095Z,30.70
2018-07-03T10:47:50.354Z,30.60
2018-07-03T10:50:18.579Z,30.60
2018-07-03T10:52:46.730Z,30.60
2018-07-03T10:55:14.994Z,30.30
2018-07-03T10:57:43.151Z,30.30
2018-07-03T11:00:11.352Z,30.60
2018-07-03T11:02:39.534Z,30.80
2018-07-03T11:05:07.828Z,31.00
2018-07-03T11:10:04.152Z,31.30
2018-07-03T11:12:32.275Z,31.50
2018-07-03T11:15:00.579Z,31.70
2018-07-03T11:17:28.743Z,32.20
2018-07-03T11:19:57.090Z,32.40
2018-07-03T11:22:25.109Z,32.30
2018-07-03T11:24:53.255Z,32.50
2018-07-03T11:27:21.444Z,32.80
2018-07-03T11:29:49.602Z,32.80
2018-07-03T11:32:17.742Z,32.90
2018-07-03T11:34:45.954Z,32.90
2018-07-03T11:37:14.135Z,33.00
2018-07-03T11:39:42.285Z,33.00
2018-07-03T11:42:10.458Z,32.80
2018-07-03T11:44:38.719Z,32.90
2018-07-03T11:47:06.901Z,33.00
2018-07-03T11:49:35.055Z,32.90
2018-07-03T11:52:03.239Z,32.60
2018-07-03T11:54:31.394Z,32.90
2018-07-03T11:56:59.566Z,33.10
2018-07-03T11:59:27.709Z,33.30
2018-07-03T12:01:55.861Z,33.60
2018-07-03T12:04:24.078Z,33.80
2018-07-03T12:06:52.314Z,33.80
2018-07-03T12:09:28.978Z,34.10
2018-07-03T12:11:57.207Z,34.30
2018-07-03T12:14:25.356Z,34.10
2018-07-03T12:17:12.431Z,34.00
2018-07-03T12:19:40.630Z,33.70
2018-07-03T12:22:08.727Z,33.10
2018-07-03T12:24:36.875Z,32.40
2018-07-03T12:27:05.268Z,31.90
2018-07-03T12:29:33.479Z,31.50
2018-07-03T12:32:01.863Z,31.70
2018-07-03T12:34:30.658Z,32.10
2018-07-03T12:37:02.528Z,32.60
2018-07-03T12:39:30.788Z,32.80
2018-07-03T12:41:59.170Z,33.40
2018-07-03T12:44:27.450Z,33.90
2018-07-03T12:46:56.192Z,34.10
2018-07-03T12:49:24.978Z,34.20
2018-07-03T12:51:53.625Z,34.30
2018-07-03T12:54:22.494Z,34.50
2018-07-03T12:56:51.034Z,34.60
2018-07-03T12:59:20.055Z,34.30
2018-07-03T13:01:48.214Z,34.40
2018-07-03T13:04:16.552Z,34.40
2018-07-03T13:06:44.810Z,34.50
2018-07-03T13:09:13.450Z,34.90
2018-07-03T13:11:42.046Z,35.00
2018-07-03T13:14:10.669Z,35.10
2018-07-03T13:16:39.388Z,35.20
2018-07-03T13:19:07.901Z,35.40
2018-07-03T13:21:36.333Z,35.50
2018-07-03T13:24:04.720Z,35.90
2018-07-03T13:26:36.853Z,35.20
2018-07-03T13:29:05.923Z,35.10
2018-07-03T13:31:34.545Z,35.10
2018-07-03T13:34:03.347Z,35.40
2018-07-03T13:36:31.961Z,35.30
2018-07-03T13:39:00.677Z,35.00
2018-07-03T13:41:28.905Z,34.70
2018-07-03T13:43:57.103Z,34.30
2018-07-03T13:46:26.499Z,33.50
2018-07-03T13:48:54.870Z,33.20
2018-07-03T13:51:23.290Z,33.50
2018-07-03T13:53:51.706Z,34.10
2018-07-03T13:56:19.972Z,34.80
2018-07-03T13:58:48.348Z,35.50
2018-07-03T14:01:16.634Z,36.20
2018-07-03T14:03:45.570Z,36.80
2018-07-03T14:06:14.711Z,37.10
2018-07-03T14:08:42.903Z,37.30
2018-07-03T14:11:12.415Z,37.30
2018-07-03T14:13:41.316Z,37.40
2018-07-03T14:16:09.807Z,37.10
2018-07-03T14:18:38.053Z,37.10
2018-07-03T14:21:06.242Z,36.90
2018-07-03T14:23:34.564Z,36.90
2018-07-03T14:28:31.406Z,37.50
2018-07-03T14:30:59.841Z,37.80
2018-07-03T14:33:28.345Z,38.00
2018-07-03T14:35:56.787Z,38.00
2018-07-03T14:38:25.474Z,37.90
2018-07-03T14:40:53.915Z,37.90
2018-07-03T14:43:22.372Z,38.10
2018-07-03T14:45:50.700Z,38.50
2018-07-03T14:48:18.873Z,38.70
2018-07-03T14:50:47.271Z,38.70
2018-07-03T14:53:15.414Z,38.10
2018-07-03T14:55:43.798Z,36.90
2018-07-03T14:58:15.741Z,36.00
2018-07-03T15:00:44.856Z,35.90
2018-07-03T15:03:13.047Z,36.20
2018-07-03T15:05:43.482Z,36.30
2018-07-03T15:08:12.997Z,36.10
2018-07-03T15:10:42.378Z,35.90
2018-07-03T15:13:10.697Z,35.70
2018-07-03T15:15:38.987Z,35.80
2018-07-03T15:18:08.511Z,35.80
2018-07-03T15:20:36.865Z,36.00
2018-07-03T15:23:05.313Z,36.00
2018-07-03T15:25:34.013Z,36.30
2018-07-03T15:31:12.024Z,36.70
2018-07-03T15:33:42.295Z,37.00
2018-07-03T15:39:03.833Z,37.40
2018-07-03T15:41:31.988Z,37.40
2018-07-03T15:44:11.637Z,37.50
2018-07-03T15:46:39.828Z,37.50
2018-07-03T15:49:08.004Z,36.50
2018-07-03T15:51:36.195Z,35.80
2018-07-03T15:54:04.436Z,35.20
2018-07-03T15:56:32.676Z,34.50
2018-07-03T15:59:00.892Z,33.90
2018-07-03T16:01:29.106Z,33.40
2018-07-03T16:04:09.168Z,33.70
2018-07-03T16:07:15.524Z,34.40
2018-07-03T16:09:43.712Z,35.40
2018-07-03T16:12:11.912Z,35.80
2018-07-03T16:14:40.049Z,35.80
2018-07-03T16:17:08.274Z,35.50
2018-07-03T16:19:41.928Z,34.70
2018-07-03T16:22:10.209Z,34.00
2018-07-03T16:24:38.393Z,33.30
2018-07-03T16:27:06.617Z,32.70
2018-07-03T16:29:34.790Z,32.10
2018-07-03T16:32:02.951Z,31.60
2018-07-03T16:34:31.177Z,31.00
2018-07-03T16:36:59.356Z,30.60
2018-07-03T16:39:27.631Z,30.20
2018-07-03T16:41:56.007Z,30.00
2018-07-03T16:44:24.189Z,29.90
2018-07-03T16:46:52.356Z,29.90
2018-07-03T16:49:20.552Z,29.90
2018-07-03T16:51:48.740Z,29.90
2018-07-03T16:54:17.106Z,29.90
2018-07-03T16:56:45.263Z,29.90
2018-07-03T16:59:13.451Z,30.00
2018-07-03T17:01:41.984Z,30.40
2018-07-03T17:04:10.243Z,30.90
2018-07-03T17:06:38.391Z,31.00
2018-07-03T17:09:09.338Z,31.40
2018-07-03T17:11:37.763Z,31.50
2018-07-03T17:14:07.417Z,31.40
2018-07-03T17:16:35.633Z,31.10
2018-07-03T17:19:09.176Z,30.80
2018-07-03T17:21:37.386Z,30.50
2018-07-03T17:24:05.706Z,30.10
2018-07-03T17:26:33.916Z,29.70
2018-07-03T17:29:02.140Z,29.40
2018-07-03T17:31:30.431Z,29.00
2018-07-03T17:33:58.654Z,28.70
2018-07-03T17:36:26.760Z,28.50
2018-07-03T17:38:54.949Z,28.40
2018-07-03T17:41:34.576Z,28.30
2018-07-03T17:44:18.944Z,28.20
2018-07-03T17:46:47.151Z,28.10
2018-07-03T17:49:15.286Z,27.90
2018-07-03T17:51:43.456Z,27.90
2018-07-03T17:54:11.687Z,27.70
2018-07-03T17:56:39.951Z,27.50
2018-07-03T17:59:08.256Z,27.40
2018-07-03T18:01:36.544Z,27.30
2018-07-03T18:04:04.715Z,27.10
2018-07-03T18:06:32.910Z,27.00
2018-07-03T18:09:01.107Z,26.90
2018-07-03T18:11:29.295Z,26.70
2018-07-03T18:13:57.485Z,26.60
2018-07-03T18:16:25.635Z,26.50
2018-07-03T18:18:58.997Z,26.40
2018-07-03T18:21:27.153Z,26.30
2018-07-03T18:23:55.379Z,26.10
2018-07-03T18:26:23.592Z,26.00
2018-07-03T18:28:51.755Z,25.90
2018-07-03T18:31:19.983Z,25.80
2018-07-03T18:33:48.144Z,25.70
2018-07-03T18:38:44.240Z,25.50
2018-07-03T18:41:12.471Z,25.30
2018-07-03T18:43:40.619Z,25.20
2018-07-03T18:46:08.792Z,25.10
2018-07-03T18:48:37.067Z,25.00
2018-07-03T18:51:05.319Z,24.90
2018-07-03T18:53:33.634Z,24.70
2018-07-03T18:56:01.790Z,24.70
2018-07-03T18:58:30.014Z,24.50
2018-07-03T19:00:58.262Z,24.50
2018-07-03T19:03:26.516Z,24.40
2018-07-03T19:05:54.590Z,24.30
2018-07-03T19:08:22.884Z,24.20
2018-07-03T19:10:51.080Z,24.00
2018-07-03T19:13:19.432Z,23.90
2018-07-03T19:15:47.621Z,23.70
2018-07-03T19:18:15.775Z,23.60
2018-07-03T19:20:44.045Z,23.40
2018-07-03T19:23:12.216Z,23.30
2018-07-03T19:25:40.562Z,23.20
2018-07-03T19:28:08.714Z,23.10
2018-07-03T19:30:36.939Z,22.90
2018-07-03T19:33:05.144Z,22.80
2018-07-03T19:35:33.334Z,22.70
2018-07-03T19:38:01.593Z,22.60
2018-07-03T19:40:29.702Z,22.50
2018-07-03T19:43:32.067Z,22.40
2018-07-03T19:46:01.384Z,22.30
2018-07-03T19:48:29.546Z,22.10
2018-07-03T19:50:58.152Z,22.00
2018-07-03T19:53:26.268Z,22.00
2018-07-03T19:55:55.614Z,21.90
2018-07-03T19:58:23.915Z,21.80
2018-07-03T20:00:53.142Z,21.80
2018-07-03T20:03:21.373Z,21.60
2018-07-03T20:05:49.539Z,21.50
2018-07-03T20:08:17.804Z,21.40
2018-07-03T20:10:45.974Z,21.20
2018-07-03T20:13:15.793Z,21.10
2018-07-03T20:15:43.956Z,21.00
2018-07-03T20:18:12.864Z,20.90
2018-07-03T20:20:41.032Z,20.80
2018-07-03T20:23:09.187Z,20.80
2018-07-03T20:25:38.167Z,20.70
2018-07-03T20:28:06.393Z,20.60
2018-07-03T20:30:34.572Z,20.60
2018-07-03T20:33:02.723Z,20.50
2018-07-03T20:35:31.078Z,20.50
2018-07-03T20:38:04.431Z,20.40
2018-07-03T20:40:48.357Z,20.40
2018-07-03T20:43:16.542Z,20.30
2018-07-03T20:45:44.704Z,20.30
2018-07-03T20:48:12.895Z,20.30
2018-07-03T20:50:41.098Z,20.30
2018-07-03T20:53:09.252Z,20.30
2018-07-03T20:55:37.429Z,20.20
2018-07-03T20:58:05.598Z,20.10
2018-07-03T21:00:33.792Z,20.00
2018-07-03T21:03:02.050Z,20.00
2018-07-03T21:05:30.225Z,20.00
2018-07-03T21:07:58.412Z,19.90
2018-07-03T21:10:26.641Z,19.90
2018-07-03T21:12:54.764Z,19.80
2018-07-03T21:15:22.957Z,19.70
2018-07-03T21:17:51.113Z,19.60
2018-07-03T21:20:19.450Z,19.50
2018-07-03T21:22:47.618Z,19.40
2018-07-03T21:25:15.816Z,19.30
2018-07-03T21:27:44.336Z,19.30
2018-07-03T21:30:12.920Z,19.20
2018-07-03T21:32:41.201Z,19.10
2018-07-03T21:35:09.366Z,19.10
2018-07-03T21:37:37.630Z,19.00
2018-07-03T21:40:05.794Z,19.00
2018-07-03T21:42:34.051Z,18.90
2018-07-03T21:45:02.248Z,18.90
2018-07-03T21:47:30.452Z,18.80
2018-07-03T21:49:58.651Z,18.80
2018-07-03T21:52:26.821Z,18.80
2018-07-03T21:54:55.212Z,18.70
2018-07-03T21:57:23.388Z,18.70
2018-07-03T21:59:51.585Z,18.70
2018-07-03T22:02:19.755Z,18.70
2018-07-03T22:04:47.937Z,18.60
2018-07-03T22:07:16.142Z,18.60
2018-07-03T22:09:44.305Z,18.50
2018-07-03T22:12:12.495Z,18.60
2018-07-03T22:14:41.849Z,18.50
2018-07-03T22:17:11.064Z,18.50
2018-07-03T22:19:39.418Z,18.50
2018-07-03T22:22:07.736Z,18.50
2018-07-03T22:24:35.869Z,18.40
2018-07-03T22:27:04.550Z,18.50
2018-07-03T22:29:32.752Z,18.40
2018-07-03T22:32:01.106Z,18.50
2018-07-03T22:34:29.318Z,18.50
2018-07-03T22:36:57.471Z,18.50
2018-07-03T22:39:25.721Z,18.50
2018-07-03T22:41:53.978Z,18.50
2018-07-03T22:44:22.165Z,18.60
2018-07-03T22:46:50.363Z,18.60
2018-07-03T22:51:46.520Z,18.60
2018-07-03T22:54:14.676Z,18.60
2018-07-03T22:56:42.856Z,18.50
2018-07-03T22:59:11.025Z,18.50
2018-07-03T23:01:39.194Z,18.50
2018-07-03T23:04:07.471Z,18.40
2018-07-03T23:06:35.667Z,18.40
2018-07-03T23:09:05.636Z,18.40
2018-07-03T23:11:33.796Z,18.40
2018-07-03T23:14:02.283Z,18.50
2018-07-03T23:16:34.620Z,18.50
2018-07-03T23:19:07.419Z,18.50
2018-07-03T23:21:36.153Z,18.50
2018-07-03T23:24:04.326Z,18.60
2018-07-03T23:26:32.667Z,18.60
2018-07-03T23:29:00.839Z,18.60
2018-07-03T23:31:28.985Z,18.60
2018-07-03T23:33:57.158Z,18.60
2018-07-03T23:36:25.318Z,18.60
2018-07-03T23:38:53.456Z,18.60
2018-07-03T23:41:21.922Z,18.70
2018-07-03T23:43:50.089Z,18.70
2018-07-03T23:46:29.699Z,18.70
2018-07-03T23:49:09.407Z,18.70
2018-07-03T23:51:49.135Z,18.70
2018-07-03T23:54:28.773Z,18.70
2018-07-03T23:57:08.476Z,18.70
2018-07-03T23:59:48.184Z,18.70
